createdAt,value
2016-06-19T00:00:20.745Z,22.12
2016-06-19T00:01:21.374Z,22.1
2016-06-19T00:02:21.377Z,22.14
2016-06-19T00:03:20.756Z,22.15
2016-06-19T00:04:20.775Z,22.12
2016-06-19T00:05:21.388Z,22.14
2016-06-19T00:06:20.782Z,22.15
2016-06-19T00:07:22.786Z,22.14
2016-06-19T00:08:20.789Z,22.14
2016-06-19T00:09:21.245Z,22.17
2016-06-19T00:10:20.813Z,22.14
2016-06-19T00:11:20.815Z,22.17
2016-06-19T00:12:21.428Z,22.1
2016-06-19T00:13:21.432Z,22.1
2016-06-19T00:14:21.451Z,22.1
2016-06-19T00:15:20.845Z,22.12
2016-06-19T00:16:20.833Z,22.03
2016-06-19T00:17:21.461Z,22.06
2016-06-19T00:18:22.637Z,22.09
2016-06-19T00:19:20.858Z,22.06
2016-06-19T00:20:22.097Z,22.1
2016-06-19T00:21:22.101Z,22.03
2016-06-19T00:22:22.119Z,22.03
2016-06-19T00:23:20.872Z,22.09
2016-06-19T00:24:20.891Z,22.06
2016-06-19T00:25:20.895Z,22.05
2016-06-19T00:26:20.899Z,22.07
2016-06-19T00:27:21.527Z,22.09
2016-06-19T00:28:21.531Z,22.02
2016-06-19T00:29:22.767Z,22.1
2016-06-19T00:30:22.146Z,22.06
2016-06-19T00:31:21.541Z,22.07
2016-06-19T00:32:20.935Z,22.06
2016-06-19T00:33:20.939Z,22.06
2016-06-19T00:34:21.567Z,22.05
2016-06-19T00:35:21.571Z,22.06
2016-06-19T00:36:21.574Z,22.06
2016-06-19T00:37:20.968Z,22.12
2016-06-19T00:38:20.971Z,22.12
2016-06-19T00:39:21.599Z,22.03
2016-06-19T00:40:22.150Z,22.1
2016-06-19T00:41:22.231Z,22.02
2016-06-19T00:42:21.251Z,22.07
2016-06-19T00:43:21.661Z,21.99
2016-06-19T00:44:22.586Z,22.05
2016-06-19T00:45:21.637Z,22.02
2016-06-19T00:46:21.640Z,22
2016-06-19T00:47:21.643Z,22.03
2016-06-19T00:48:22.271Z,22.12
2016-06-19T00:49:21.025Z,22.09
2016-06-19T00:50:21.654Z,22.03
2016-06-19T00:51:22.829Z,22.09
2016-06-19T00:52:21.676Z,22.03
2016-06-19T00:53:21.054Z,22.05
2016-06-19T00:54:21.682Z,22.07
2016-06-19T00:55:22.279Z,22.05
2016-06-19T00:56:21.080Z,22.09
2016-06-19T00:57:21.084Z,22.12
2016-06-19T00:58:21.087Z,22.06
2016-06-19T00:59:21.107Z,22
2016-06-19T01:00:22.360Z,22.05
2016-06-19T01:01:22.348Z,22.06
2016-06-19T01:02:21.101Z,22.05
2016-06-19T01:03:21.121Z,22.06
2016-06-19T01:04:21.124Z,22.07
2016-06-19T01:05:21.127Z,21.99
2016-06-19T01:06:22.381Z,21.98
2016-06-19T01:07:21.759Z,22.06
2016-06-19T01:08:21.152Z,22.07
2016-06-19T01:09:21.156Z,22.1
2016-06-19T01:10:22.394Z,22.07
2016-06-19T01:11:21.163Z,22.06
2016-06-19T01:12:21.183Z,22.03
2016-06-19T01:13:21.170Z,22.07
2016-06-19T01:14:21.799Z,22
2016-06-19T01:15:21.193Z,22.09
2016-06-19T01:16:21.806Z,22.06
2016-06-19T01:17:21.887Z,21.92
2016-06-19T01:18:21.829Z,22.07
2016-06-19T01:19:22.441Z,22.06
2016-06-19T01:20:21.210Z,21.96
2016-06-19T01:21:21.230Z,22.06
2016-06-19T01:22:21.233Z,22.07
2016-06-19T01:23:21.220Z,22.07
2016-06-19T01:24:21.849Z,22.06
2016-06-19T01:25:21.353Z,22.03
2016-06-19T01:26:23.590Z,22.03
2016-06-19T01:27:21.876Z,22
2016-06-19T01:28:22.285Z,21.96
2016-06-19T01:29:22.507Z,22.03
2016-06-19T01:30:21.948Z,22.03
2016-06-19T01:31:21.890Z,22.07
2016-06-19T01:32:21.283Z,22
2016-06-19T01:33:21.286Z,22.03
2016-06-19T01:34:21.915Z,22.02
2016-06-19T01:35:21.934Z,22.03
2016-06-19T01:36:21.938Z,22
2016-06-19T01:37:22.410Z,21.99
2016-06-19T01:38:21.319Z,22
2016-06-19T01:39:21.620Z,21.92
2016-06-19T01:40:23.858Z,22.06
2016-06-19T01:41:23.580Z,22
2016-06-19T01:42:21.348Z,22.06
2016-06-19T01:43:21.352Z,22
2016-06-19T01:44:21.371Z,21.92
2016-06-19T01:45:21.984Z,22
2016-06-19T01:46:21.987Z,21.91
2016-06-19T01:47:21.381Z,22.03
2016-06-19T01:48:21.369Z,22
2016-06-19T01:49:21.389Z,22
2016-06-19T01:50:21.689Z,22
2016-06-19T01:51:21.395Z,21.99
2016-06-19T01:52:23.055Z,21.88
2016-06-19T01:53:22.028Z,21.91
2016-06-19T01:54:22.047Z,21.92
2016-06-19T01:55:21.413Z,21.88
2016-06-19T01:56:21.437Z,21.91
2016-06-19T01:57:22.069Z,22.02
2016-06-19T01:58:21.451Z,21.91
2016-06-19T01:59:22.691Z,22.02
2016-06-19T02:00:22.712Z,21.96
2016-06-19T02:01:21.467Z,21.96
2016-06-19T02:02:21.471Z,21.91
2016-06-19T02:03:21.508Z,21.91
2016-06-19T02:04:22.121Z,21.96
2016-06-19T02:05:22.141Z,21.91
2016-06-19T02:06:22.129Z,22.06
2016-06-19T02:07:21.508Z,22.02
2016-06-19T02:08:22.762Z,21.92
2016-06-19T02:09:22.766Z,22.03
2016-06-19T02:10:36.394Z,22.02
2016-06-19T02:11:22.164Z,22.02
2016-06-19T02:12:22.167Z,22.06
2016-06-19T02:13:22.795Z,22.02
2016-06-19T02:14:23.111Z,22.03
2016-06-19T02:15:21.569Z,22.02
2016-06-19T02:16:21.571Z,22.03
2016-06-19T02:17:22.200Z,21.99
2016-06-19T02:18:21.594Z,22.03
2016-06-19T02:19:21.583Z,22
2016-06-19T02:20:21.585Z,22.09
2016-06-19T02:21:21.589Z,22.03
2016-06-19T02:22:22.249Z,22.07
2016-06-19T02:23:22.236Z,22.02
2016-06-19T02:24:21.614Z,22.05
2016-06-19T02:25:21.618Z,22.06
2016-06-19T02:26:22.247Z,22.09
2016-06-19T02:27:22.281Z,22.06
2016-06-19T02:28:22.253Z,22.06
2016-06-19T02:29:22.304Z,22.03
2016-06-19T02:30:22.885Z,22.05
2016-06-19T02:31:21.811Z,21.99
2016-06-19T02:32:21.689Z,22
2016-06-19T02:33:21.677Z,22.05
2016-06-19T02:34:21.680Z,22.02
2016-06-19T02:35:22.294Z,21.98
2016-06-19T02:36:23.594Z,22.05
2016-06-19T02:37:21.690Z,22.03
2016-06-19T02:38:22.069Z,22.05
2016-06-19T02:39:21.697Z,22
2016-06-19T02:40:36.560Z,22.03
2016-06-19T02:41:21.720Z,22.06
2016-06-19T02:42:21.708Z,22.03
2016-06-19T02:43:21.727Z,22.05
2016-06-19T02:44:21.731Z,22.06
2016-06-19T02:45:21.734Z,22.05
2016-06-19T02:46:21.737Z,22.05
2016-06-19T02:47:22.866Z,22.03
2016-06-19T02:48:21.761Z,22.02
2016-06-19T02:49:22.372Z,21.98
2016-06-19T02:50:21.767Z,21.99
2016-06-19T02:51:21.786Z,22.05
2016-06-19T02:52:21.775Z,22.06
2016-06-19T02:53:22.417Z,22.05
2016-06-19T02:54:21.796Z,21.98
2016-06-19T02:55:21.800Z,22.03
2016-06-19T02:56:22.428Z,22.03
2016-06-19T02:57:22.431Z,21.99
2016-06-19T02:58:22.982Z,21.9
2016-06-19T02:59:22.439Z,21.91
2016-06-19T03:00:21.817Z,21.91
2016-06-19T03:01:22.445Z,22.02
2016-06-19T03:02:22.449Z,22.02
2016-06-19T03:03:22.452Z,22.06
2016-06-19T03:04:22.472Z,21.9
2016-06-19T03:05:22.459Z,21.91
2016-06-19T03:06:21.854Z,22
2016-06-19T03:07:21.857Z,21.91
2016-06-19T03:08:23.111Z,21.91
2016-06-19T03:09:22.817Z,21.91
2016-06-19T03:10:22.508Z,21.98
2016-06-19T03:11:21.949Z,21.92
2016-06-19T03:12:21.890Z,21.86
2016-06-19T03:13:21.909Z,21.98
2016-06-19T03:14:21.913Z,21.94
2016-06-19T03:15:21.916Z,21.91
2016-06-19T03:16:21.919Z,22
2016-06-19T03:17:22.548Z,21.96
2016-06-19T03:18:21.927Z,21.88
2016-06-19T03:19:22.554Z,21.88
2016-06-19T03:20:22.418Z,21.96
2016-06-19T03:21:22.562Z,21.9
2016-06-19T03:22:21.956Z,21.9
2016-06-19T03:23:21.959Z,21.92
2016-06-19T03:24:22.916Z,21.98
2016-06-19T03:25:22.592Z,21.91
2016-06-19T03:26:22.657Z,21.86
2016-06-19T03:27:22.754Z,21.94
2016-06-19T03:28:21.992Z,21.9
2016-06-19T03:29:21.995Z,21.88
2016-06-19T03:30:22.046Z,21.91
2016-06-19T03:31:22.002Z,21.91
2016-06-19T03:32:22.630Z,21.91
2016-06-19T03:33:22.072Z,21.9
2016-06-19T03:34:22.029Z,21.98
2016-06-19T03:35:23.032Z,21.98
2016-06-19T03:36:22.035Z,21.91
2016-06-19T03:37:22.664Z,21.98
2016-06-19T03:38:23.292Z,21.88
2016-06-19T03:39:22.671Z,21.94
2016-06-19T03:40:23.315Z,21.84
2016-06-19T03:41:22.694Z,21.96
2016-06-19T03:42:22.056Z,21.91
2016-06-19T03:43:22.701Z,21.94
2016-06-19T03:44:24.094Z,21.88
2016-06-19T03:45:22.082Z,21.8
2016-06-19T03:46:23.211Z,21.88
2016-06-19T03:47:22.105Z,21.88
2016-06-19T03:48:22.107Z,21.84
2016-06-19T03:49:22.722Z,21.98
2016-06-19T03:50:22.740Z,21.94
2016-06-19T03:51:22.118Z,21.82
2016-06-19T03:52:22.121Z,21.84
2016-06-19T03:53:22.158Z,21.88
2016-06-19T03:54:22.754Z,21.92
2016-06-19T03:55:22.148Z,21.82
2016-06-19T03:56:22.136Z,21.84
2016-06-19T03:57:23.155Z,21.91
2016-06-19T03:58:22.159Z,21.9
2016-06-19T03:59:22.771Z,21.83
2016-06-19T04:00:22.166Z,21.79
2016-06-19T04:01:22.185Z,21.86
2016-06-19T04:02:22.797Z,21.84
2016-06-19T04:03:22.176Z,21.91
2016-06-19T04:04:22.195Z,21.88
2016-06-19T04:05:22.824Z,21.94
2016-06-19T04:06:22.827Z,21.83
2016-06-19T04:07:22.221Z,21.91
2016-06-19T04:08:22.615Z,21.86
2016-06-19T04:09:22.853Z,21.79
2016-06-19T04:10:37.091Z,21.8
2016-06-19T04:11:22.266Z,21.83
2016-06-19T04:12:22.240Z,21.86
2016-06-19T04:13:22.246Z,21.86
2016-06-19T04:14:22.281Z,21.88
2016-06-19T04:15:22.880Z,21.86
2016-06-19T04:16:22.276Z,21.79
2016-06-19T04:17:22.280Z,21.91
2016-06-19T04:18:22.910Z,21.83
2016-06-19T04:19:23.522Z,21.88
2016-06-19T04:20:22.918Z,21.9
2016-06-19T04:21:23.969Z,21.91
2016-06-19T04:22:22.925Z,21.79
2016-06-19T04:23:23.553Z,21.88
2016-06-19T04:24:22.932Z,21.86
2016-06-19T04:25:22.326Z,21.84
2016-06-19T04:26:22.329Z,21.86
2016-06-19T04:27:22.973Z,21.83
2016-06-19T04:28:22.961Z,21.88
2016-06-19T04:29:22.449Z,21.84
2016-06-19T04:30:22.968Z,21.91
2016-06-19T04:31:22.362Z,21.79
2016-06-19T04:32:22.381Z,21.86
2016-06-19T04:33:22.416Z,21.9
2016-06-19T04:34:22.373Z,21.9
2016-06-19T04:35:22.376Z,21.84
2016-06-19T04:36:22.395Z,21.86
2016-06-19T04:37:23.024Z,21.86
2016-06-19T04:38:22.403Z,21.83
2016-06-19T04:39:22.405Z,21.84
2016-06-19T04:40:37.909Z,21.83
2016-06-19T04:41:22.819Z,21.9
2016-06-19T04:42:22.416Z,21.8
2016-06-19T04:43:24.232Z,21.9
2016-06-19T04:44:23.064Z,21.88
2016-06-19T04:45:22.441Z,21.88
2016-06-19T04:46:22.445Z,21.9
2016-06-19T04:47:23.074Z,21.83
2016-06-19T04:48:23.077Z,21.91
2016-06-19T04:49:22.455Z,21.86
2016-06-19T04:50:22.475Z,21.86
2016-06-19T04:51:23.087Z,21.88
2016-06-19T04:52:23.216Z,21.9
2016-06-19T04:53:22.485Z,21.79
2016-06-19T04:54:22.488Z,21.83
2016-06-19T04:55:22.492Z,21.84
2016-06-19T04:56:23.152Z,21.86
2016-06-19T04:57:23.124Z,21.9
2016-06-19T04:58:22.518Z,21.8
2016-06-19T04:59:23.131Z,21.8
2016-06-19T05:00:22.525Z,21.86
2016-06-19T05:01:23.169Z,21.77
2016-06-19T05:02:22.533Z,21.82
2016-06-19T05:03:22.551Z,21.86
2016-06-19T05:04:23.164Z,21.83
2016-06-19T05:05:24.168Z,21.86
2016-06-19T05:06:22.561Z,21.8
2016-06-19T05:07:23.346Z,21.86
2016-06-19T05:08:23.193Z,21.83
2016-06-19T05:09:22.571Z,21.91
2016-06-19T05:10:23.200Z,21.88
2016-06-19T05:11:23.204Z,21.86
2016-06-19T05:12:23.832Z,21.83
2016-06-19T05:13:23.226Z,21.83
2016-06-19T05:14:23.230Z,21.88
2016-06-19T05:15:22.639Z,21.88
2016-06-19T05:16:24.284Z,21.86
2016-06-19T05:17:22.630Z,21.83
2016-06-19T05:18:22.775Z,21.8
2016-06-19T05:19:22.637Z,21.8
2016-06-19T05:20:22.640Z,21.84
2016-06-19T05:21:23.269Z,21.88
2016-06-19T05:22:23.273Z,21.86
2016-06-19T05:23:22.651Z,21.84
2016-06-19T05:24:22.671Z,21.83
2016-06-19T05:25:22.674Z,21.84
2016-06-19T05:26:22.677Z,21.84
2016-06-19T05:27:23.712Z,21.86
2016-06-19T05:28:23.934Z,21.86
2016-06-19T05:29:22.704Z,21.84
2016-06-19T05:30:23.957Z,21.86
2016-06-19T05:31:22.710Z,21.92
2016-06-19T05:32:22.715Z,21.83
2016-06-19T05:33:22.717Z,21.92
2016-06-19T05:34:22.721Z,21.82
2016-06-19T05:35:23.365Z,21.83
2016-06-19T05:36:23.353Z,21.9
2016-06-19T05:37:22.747Z,21.86
2016-06-19T05:38:24.218Z,21.92
2016-06-19T05:39:22.753Z,21.94
2016-06-19T05:40:23.382Z,21.88
2016-06-19T05:41:23.386Z,21.84
2016-06-19T05:42:24.185Z,21.91
2016-06-19T05:43:23.393Z,21.88
2016-06-19T05:44:24.020Z,21.91
2016-06-19T05:45:22.790Z,21.84
2016-06-19T05:46:24.043Z,21.91
2016-06-19T05:47:22.797Z,21.91
2016-06-19T05:48:22.801Z,21.88
2016-06-19T05:49:23.459Z,21.84
2016-06-19T05:50:23.432Z,21.91
2016-06-19T05:51:24.061Z,21.91
2016-06-19T05:52:23.456Z,21.92
2016-06-19T05:53:23.942Z,21.9
2016-06-19T05:54:22.838Z,21.88
2016-06-19T05:55:22.840Z,21.83
2016-06-19T05:56:22.859Z,21.83
2016-06-19T05:57:22.863Z,21.9
2016-06-19T05:58:22.866Z,21.99
2016-06-19T05:59:22.870Z,21.92
2016-06-19T06:00:22.872Z,21.98
2016-06-19T06:01:24.111Z,21.94
2016-06-19T06:02:22.896Z,21.92
2016-06-19T06:03:23.539Z,21.96
2016-06-19T06:04:24.261Z,21.98
2016-06-19T06:05:22.890Z,21.9
2016-06-19T06:06:23.534Z,21.96
2016-06-19T06:07:23.538Z,21.98
2016-06-19T06:08:23.557Z,21.92
2016-06-19T06:09:22.920Z,21.9
2016-06-19T06:10:22.938Z,21.98
2016-06-19T06:11:22.942Z,21.96
2016-06-19T06:12:22.946Z,21.91
2016-06-19T06:13:22.949Z,22.02
2016-06-19T06:14:22.953Z,22
2016-06-19T06:15:24.003Z,22
2016-06-19T06:16:22.975Z,21.91
2016-06-19T06:17:22.979Z,21.9
2016-06-19T06:18:22.982Z,22.05
2016-06-19T06:19:22.985Z,22.06
2016-06-19T06:20:23.005Z,21.99
2016-06-19T06:21:23.617Z,22.05
2016-06-19T06:22:22.996Z,22
2016-06-19T06:23:23.624Z,22.02
2016-06-19T06:24:23.222Z,22.12
2016-06-19T06:25:23.023Z,22.06
2016-06-19T06:26:24.618Z,22.1
2016-06-19T06:27:23.029Z,22.12
2016-06-19T06:28:23.054Z,22.12
2016-06-19T06:29:23.048Z,22.03
2016-06-19T06:30:23.073Z,22.09
2016-06-19T06:31:23.082Z,22.05
2016-06-19T06:32:23.090Z,22.07
2016-06-19T06:33:23.096Z,22.05
2016-06-19T06:34:23.727Z,22.07
2016-06-19T06:35:24.358Z,22.05
2016-06-19T06:36:23.114Z,22.06
2016-06-19T06:37:24.854Z,22.05
2016-06-19T06:38:23.764Z,22
2016-06-19T06:39:23.769Z,22.02
2016-06-19T06:40:23.773Z,22.03
2016-06-19T06:41:23.777Z,21.94
2016-06-19T06:42:23.173Z,21.91
2016-06-19T06:43:23.784Z,21.99
2016-06-19T06:44:23.819Z,22
2016-06-19T06:45:23.822Z,22.05
2016-06-19T06:46:23.812Z,22.03
2016-06-19T06:47:23.205Z,22
2016-06-19T06:48:24.474Z,22
2016-06-19T06:49:23.837Z,21.91
2016-06-19T06:50:23.215Z,21.9
2016-06-19T06:51:23.843Z,21.99
2016-06-19T06:52:23.253Z,21.91
2016-06-19T06:53:23.850Z,21.86
2016-06-19T06:54:23.245Z,21.92
2016-06-19T06:55:23.248Z,21.96
2016-06-19T06:56:23.252Z,21.96
2016-06-19T06:57:23.255Z,21.92
2016-06-19T06:58:23.884Z,21.96
2016-06-19T06:59:25.152Z,21.96
2016-06-19T07:00:23.266Z,21.98
2016-06-19T07:01:23.784Z,21.92
2016-06-19T07:02:23.287Z,21.91
2016-06-19T07:03:23.291Z,22
2016-06-19T07:04:23.919Z,21.96
2016-06-19T07:05:23.923Z,22
2016-06-19T07:06:23.926Z,21.92
2016-06-19T07:07:23.930Z,21.9
2016-06-19T07:08:23.950Z,21.99
2016-06-19T07:09:23.936Z,21.92
2016-06-19T07:10:24.925Z,21.91
2016-06-19T07:11:23.350Z,21.91
2016-06-19T07:12:23.494Z,21.9
2016-06-19T07:13:23.342Z,21.92
2016-06-19T07:14:23.361Z,21.9
2016-06-19T07:15:23.989Z,21.92
2016-06-19T07:16:23.367Z,21.9
2016-06-19T07:17:23.371Z,21.91
2016-06-19T07:18:23.390Z,21.83
2016-06-19T07:19:24.003Z,21.86
2016-06-19T07:20:23.382Z,21.99
2016-06-19T07:21:25.120Z,21.9
2016-06-19T07:22:24.028Z,21.92
2016-06-19T07:23:23.767Z,21.94
2016-06-19T07:24:24.020Z,21.98
2016-06-19T07:25:25.164Z,21.96
2016-06-19T07:26:24.074Z,21.96
2016-06-19T07:27:23.421Z,21.91
2016-06-19T07:28:23.441Z,21.94
2016-06-19T07:29:23.443Z,21.91
2016-06-19T07:30:24.088Z,21.92
2016-06-19T07:31:24.076Z,21.92
2016-06-19T07:32:24.782Z,21.91
2016-06-19T07:33:24.083Z,21.86
2016-06-19T07:34:24.242Z,21.91
2016-06-19T07:35:23.481Z,21.84
2016-06-19T07:36:25.202Z,21.9
2016-06-19T07:37:24.096Z,21.86
2016-06-19T07:38:23.491Z,21.86
2016-06-19T07:39:23.509Z,21.83
2016-06-19T07:40:23.513Z,21.84
2016-06-19T07:41:23.563Z,21.88
2016-06-19T07:42:24.130Z,21.88
2016-06-19T07:43:24.148Z,21.91
2016-06-19T07:44:23.526Z,21.9
2016-06-19T07:45:23.530Z,21.9
2016-06-19T07:46:23.550Z,21.84
2016-06-19T07:47:24.834Z,21.92
2016-06-19T07:48:24.182Z,21.84
2016-06-19T07:49:24.200Z,21.9
2016-06-19T07:50:24.188Z,21.88
2016-06-19T07:51:23.566Z,21.83
2016-06-19T07:52:23.570Z,21.9
2016-06-19T07:53:24.199Z,21.88
2016-06-19T07:54:24.202Z,21.82
2016-06-19T07:55:24.206Z,21.91
2016-06-19T07:56:23.599Z,21.94
2016-06-19T07:57:24.228Z,21.9
2016-06-19T07:58:24.981Z,21.9
2016-06-19T07:59:24.235Z,21.9
2016-06-19T08:00:24.254Z,21.83
2016-06-19T08:01:24.241Z,21.9
2016-06-19T08:02:23.636Z,21.83
2016-06-19T08:03:24.264Z,21.83
2016-06-19T08:04:24.268Z,21.84
2016-06-19T08:05:23.646Z,21.83
2016-06-19T08:06:24.275Z,21.94
2016-06-19T08:07:25.904Z,21.9
2016-06-19T08:08:24.906Z,21.83
2016-06-19T08:09:24.474Z,21.94
2016-06-19T08:10:24.304Z,21.9
2016-06-19T08:11:25.776Z,21.84
2016-06-19T08:12:24.311Z,21.84
2016-06-19T08:13:23.721Z,21.88
2016-06-19T08:14:23.709Z,21.84
2016-06-19T08:15:23.712Z,21.86
2016-06-19T08:16:24.951Z,21.88
2016-06-19T08:17:24.343Z,21.82
2016-06-19T08:18:25.394Z,21.8
2016-06-19T08:19:23.726Z,21.88
2016-06-19T08:20:23.995Z,21.84
2016-06-19T08:21:24.374Z,21.84
2016-06-19T08:22:25.424Z,21.91
2016-06-19T08:23:24.381Z,21.83
2016-06-19T08:24:24.384Z,21.84
2016-06-19T08:25:24.387Z,21.88
2016-06-19T08:26:23.766Z,21.92
2016-06-19T08:27:23.785Z,21.9
2016-06-19T08:28:24.414Z,21.86
2016-06-19T08:29:23.792Z,21.86
2016-06-19T08:30:23.796Z,21.94
2016-06-19T08:31:24.564Z,21.91
2016-06-19T08:32:24.428Z,21.94
2016-06-19T08:33:23.821Z,21.98
2016-06-19T08:34:23.825Z,21.98
2016-06-19T08:35:23.922Z,21.96
2016-06-19T08:36:23.847Z,21.92
2016-06-19T08:37:23.835Z,21.91
2016-06-19T08:38:24.463Z,21.9
2016-06-19T08:39:23.952Z,21.94
2016-06-19T08:40:23.862Z,21.92
2016-06-19T08:41:23.896Z,21.91
2016-06-19T08:42:23.977Z,21.99
2016-06-19T08:43:23.871Z,21.88
2016-06-19T08:44:23.908Z,22.06
2016-06-19T08:45:24.665Z,22.02
2016-06-19T08:46:23.921Z,21.96
2016-06-19T08:47:24.536Z,22.06
2016-06-19T08:48:23.917Z,22.07
2016-06-19T08:49:23.938Z,22.07
2016-06-19T08:50:23.942Z,22.09
2016-06-19T08:51:25.166Z,22.14
2016-06-19T08:52:23.951Z,22.12
2016-06-19T08:53:24.581Z,22.15
2016-06-19T08:54:23.960Z,22.12
2016-06-19T08:55:25.511Z,22.14
2016-06-19T08:56:24.593Z,22.14
2016-06-19T08:57:23.987Z,22.15
2016-06-19T08:58:23.992Z,22.12
2016-06-19T08:59:24.604Z,22.17
2016-06-19T09:00:24.624Z,22.15
2016-06-19T09:01:24.627Z,22.15
2016-06-19T09:02:24.631Z,22.17
2016-06-19T09:03:24.024Z,22.09
2016-06-19T09:04:24.027Z,22.15
2016-06-19T09:05:24.656Z,22.09
2016-06-19T09:06:25.816Z,22.15
2016-06-19T09:07:24.054Z,22.14
2016-06-19T09:08:24.307Z,22.09
2016-06-19T09:09:24.061Z,22.07
2016-06-19T09:10:24.064Z,22.14
2016-06-19T09:11:24.067Z,22.1
2016-06-19T09:12:24.696Z,22.1
2016-06-19T09:13:24.699Z,22.1
2016-06-19T09:14:24.094Z,22.07
2016-06-19T09:15:24.706Z,22.06
2016-06-19T09:16:25.335Z,22.09
2016-06-19T09:17:25.370Z,22.06
2016-06-19T09:18:24.108Z,22.14
2016-06-19T09:19:24.112Z,22.03
2016-06-19T09:20:24.130Z,22.02
2016-06-19T09:21:24.134Z,22.05
2016-06-19T09:22:24.136Z,22.02
2016-06-19T09:23:24.781Z,22.03
2016-06-19T09:24:24.768Z,22.12
2016-06-19T09:25:24.147Z,22.05
2016-06-19T09:26:25.401Z,22.05
2016-06-19T09:27:24.170Z,22.06
2016-06-19T09:28:25.299Z,22.05
2016-06-19T09:29:24.176Z,22.09
2016-06-19T09:30:24.805Z,22.06
2016-06-19T09:31:24.809Z,22.12
2016-06-19T09:32:24.813Z,22.14
2016-06-19T09:33:24.847Z,22.09
2016-06-19T09:34:24.835Z,22.06
2016-06-19T09:35:24.900Z,22.02
2016-06-19T09:36:24.841Z,22.06
2016-06-19T09:37:24.282Z,22.07
2016-06-19T09:38:24.239Z,22.15
2016-06-19T09:39:25.477Z,22.15
2016-06-19T09:40:24.245Z,22.15
2016-06-19T09:41:24.249Z,22.12
2016-06-19T09:42:24.878Z,22.12
2016-06-19T09:43:24.272Z,22.17
2016-06-19T09:44:24.916Z,22.18
2016-06-19T09:45:24.279Z,22.12
2016-06-19T09:46:25.564Z,22.18
2016-06-19T09:47:24.911Z,22.25
2016-06-19T09:48:24.320Z,22.22
2016-06-19T09:49:24.293Z,22.2
2016-06-19T09:50:24.968Z,22.27
2016-06-19T09:51:24.315Z,22.25
2016-06-19T09:52:24.944Z,22.22
2016-06-19T09:53:24.947Z,22.28
2016-06-19T09:54:25.466Z,22.25
2016-06-19T09:55:24.345Z,22.25
2016-06-19T09:56:24.348Z,22.28
2016-06-19T09:57:24.977Z,22.3
2016-06-19T09:58:24.980Z,22.24
2016-06-19T09:59:24.375Z,22.27
2016-06-19T10:00:24.378Z,22.33
2016-06-19T10:01:25.115Z,22.28
2016-06-19T10:02:25.025Z,22.25
2016-06-19T10:03:25.014Z,22.25
2016-06-19T10:04:24.407Z,22.27
2016-06-19T10:05:24.957Z,22.31
2016-06-19T10:06:24.414Z,22.22
2016-06-19T10:07:25.042Z,22.25
2016-06-19T10:08:25.046Z,22.25
2016-06-19T10:09:25.049Z,22.22
2016-06-19T10:10:25.053Z,22.2
2016-06-19T10:11:24.447Z,22.27
2016-06-19T10:12:25.075Z,22.22
2016-06-19T10:13:25.688Z,22.18
2016-06-19T10:14:24.816Z,22.28
2016-06-19T10:15:25.101Z,22.22
2016-06-19T10:16:26.073Z,22.24
2016-06-19T10:17:24.483Z,22.27
2016-06-19T10:18:25.111Z,22.22
2016-06-19T10:19:24.490Z,22.24
2016-06-19T10:20:25.118Z,22.25
2016-06-19T10:21:25.122Z,22.25
2016-06-19T10:22:24.516Z,22.24
2016-06-19T10:23:24.520Z,22.2
2016-06-19T10:24:25.773Z,22.2
2016-06-19T10:25:24.542Z,22.2
2016-06-19T10:26:24.546Z,22.2
2016-06-19T10:27:25.549Z,22.25
2016-06-19T10:28:24.553Z,22.25
2016-06-19T10:29:24.556Z,22.3
2016-06-19T10:30:25.185Z,22.22
2016-06-19T10:31:25.189Z,22.27
2016-06-19T10:32:25.817Z,22.28
2016-06-19T10:33:25.211Z,22.33
2016-06-19T10:34:24.589Z,22.33
2016-06-19T10:35:25.217Z,22.28
2016-06-19T10:36:24.659Z,22.25
2016-06-19T10:37:24.662Z,22.35
2016-06-19T10:38:26.212Z,22.3
2016-06-19T10:39:24.622Z,22.39
2016-06-19T10:40:25.250Z,22.25
2016-06-19T10:41:25.254Z,22.3
2016-06-19T10:42:25.258Z,22.42
2016-06-19T10:43:25.292Z,22.4
2016-06-19T10:44:25.296Z,22.37
2016-06-19T10:45:25.283Z,22.42
2016-06-19T10:46:25.349Z,22.43
2016-06-19T10:47:25.321Z,22.45
2016-06-19T10:48:25.294Z,22.45
2016-06-19T10:49:26.438Z,22.36
2016-06-19T10:50:24.707Z,22.43
2016-06-19T10:51:25.101Z,22.43
2016-06-19T10:52:25.322Z,22.4
2016-06-19T10:53:24.718Z,22.42
2016-06-19T10:54:24.721Z,22.39
2016-06-19T10:55:25.349Z,22.42
2016-06-19T10:56:24.727Z,22.43
2016-06-19T10:57:24.746Z,22.35
2016-06-19T10:58:24.750Z,22.27
2016-06-19T10:59:25.363Z,22.4
2016-06-19T11:00:26.211Z,22.39
2016-06-19T11:01:24.778Z,22.42
2016-06-19T11:02:24.783Z,22.43
2016-06-19T11:03:25.429Z,22.39
2016-06-19T11:04:24.793Z,22.45
2016-06-19T11:05:24.797Z,22.46
2016-06-19T11:06:24.801Z,22.39
2016-06-19T11:07:24.821Z,22.37
2016-06-19T11:08:24.840Z,22.42
2016-06-19T11:09:25.438Z,22.43
2016-06-19T11:10:24.833Z,22.42
2016-06-19T11:11:25.946Z,22.4
2016-06-19T11:12:24.841Z,22.36
2016-06-19T11:13:25.219Z,22.42
2016-06-19T11:14:24.864Z,22.43
2016-06-19T11:15:24.867Z,22.46
2016-06-19T11:16:25.495Z,22.42
2016-06-19T11:17:24.890Z,22.42
2016-06-19T11:18:24.893Z,22.4
2016-06-19T11:19:25.522Z,22.42
2016-06-19T11:20:25.525Z,22.45
2016-06-19T11:21:24.920Z,22.43
2016-06-19T11:22:26.110Z,22.39
2016-06-19T11:23:24.927Z,22.4
2016-06-19T11:24:24.930Z,22.42
2016-06-19T11:25:25.558Z,22.37
2016-06-19T11:26:25.593Z,22.4
2016-06-19T11:27:25.581Z,22.4
2016-06-19T11:28:25.569Z,22.37
2016-06-19T11:29:24.962Z,22.47
2016-06-19T11:30:24.966Z,22.42
2016-06-19T11:31:24.985Z,22.39
2016-06-19T11:32:24.973Z,22.46
2016-06-19T11:33:25.007Z,22.45
2016-06-19T11:34:24.995Z,22.46
2016-06-19T11:35:25.624Z,22.42
2016-06-19T11:36:25.627Z,22.46
2016-06-19T11:37:25.662Z,22.4
2016-06-19T11:38:25.681Z,22.4
2016-06-19T11:39:25.013Z,22.45
2016-06-19T11:40:25.031Z,22.39
2016-06-19T11:41:25.034Z,22.4
2016-06-19T11:42:25.664Z,22.46
2016-06-19T11:43:25.058Z,22.45
2016-06-19T11:44:25.811Z,22.45
2016-06-19T11:45:25.065Z,22.42
2016-06-19T11:46:25.068Z,22.42
2016-06-19T11:47:25.697Z,22.52
2016-06-19T11:48:26.825Z,22.54
2016-06-19T11:49:25.703Z,22.39
2016-06-19T11:50:25.113Z,22.42
2016-06-19T11:51:25.741Z,22.39
2016-06-19T11:52:25.729Z,22.36
2016-06-19T11:53:25.109Z,22.51
2016-06-19T11:54:25.127Z,22.49
2016-06-19T11:55:25.772Z,22.57
2016-06-19T11:56:25.134Z,22.51
2016-06-19T11:57:25.763Z,22.52
2016-06-19T11:58:25.765Z,22.45
2016-06-19T11:59:26.551Z,22.4
2016-06-19T12:00:25.164Z,22.37
2016-06-19T12:01:25.792Z,22.46
2016-06-19T12:02:25.170Z,22.45
2016-06-19T12:03:25.799Z,22.47
2016-06-19T12:04:25.194Z,22.49
2016-06-19T12:05:25.197Z,22.6
2016-06-19T12:06:25.809Z,22.43
2016-06-19T12:07:25.829Z,22.46
2016-06-19T12:08:25.833Z,22.55
2016-06-19T12:09:25.210Z,22.45
2016-06-19T12:10:26.182Z,22.42
2016-06-19T12:11:25.232Z,22.51
2016-06-19T12:12:25.237Z,22.52
2016-06-19T12:13:25.240Z,22.46
2016-06-19T12:14:25.243Z,22.49
2016-06-19T12:15:25.262Z,22.51
2016-06-19T12:16:25.875Z,22.45
2016-06-19T12:17:25.894Z,22.51
2016-06-19T12:18:25.898Z,22.47
2016-06-19T12:19:25.276Z,22.52
2016-06-19T12:20:25.280Z,22.52
2016-06-19T12:21:26.393Z,22.47
2016-06-19T12:22:25.958Z,22.51
2016-06-19T12:23:25.305Z,22.57
2016-06-19T12:24:25.934Z,22.51
2016-06-19T12:25:25.953Z,22.47
2016-06-19T12:26:25.332Z,22.57
2016-06-19T12:27:25.944Z,22.57
2016-06-19T12:28:25.338Z,22.58
2016-06-19T12:29:25.967Z,22.6
2016-06-19T12:30:27.565Z,22.58
2016-06-19T12:31:25.364Z,22.52
2016-06-19T12:32:26.227Z,22.51
2016-06-19T12:33:25.997Z,22.47
2016-06-19T12:34:26.015Z,22.54
2016-06-19T12:35:26.628Z,22.52
2016-06-19T12:36:25.397Z,22.52
2016-06-19T12:37:25.400Z,22.47
2016-06-19T12:38:25.421Z,22.54
2016-06-19T12:39:26.095Z,22.47
2016-06-19T12:40:26.083Z,22.55
2016-06-19T12:41:25.431Z,22.47
2016-06-19T12:42:26.059Z,22.51
2016-06-19T12:43:26.860Z,22.58
2016-06-19T12:44:26.066Z,22.52
2016-06-19T12:45:26.070Z,22.57
2016-06-19T12:46:25.463Z,22.57
2016-06-19T12:47:25.513Z,22.54
2016-06-19T12:48:25.471Z,22.47
2016-06-19T12:49:26.114Z,22.49
2016-06-19T12:50:26.117Z,22.52
2016-06-19T12:51:25.496Z,22.52
2016-06-19T12:52:25.499Z,22.47
2016-06-19T12:53:26.128Z,22.54
2016-06-19T12:54:26.835Z,22.46
2016-06-19T12:55:25.526Z,22.61
2016-06-19T12:56:26.139Z,22.51
2016-06-19T12:57:26.767Z,22.47
2016-06-19T12:58:25.537Z,22.52